sensor_id;sensor_type;location;lat;lon;timestamp;pressure;altitude;pressure_sealevel;temperature;humidity
51147;BME280;37207;53.060;18.726;2023-04-07T00:00:56;100988.80;;;2.77;87.61
51147;BME280;37207;53.060;18.726;2023-04-07T00:03:22;100985.33;;;2.78;87.68
51147;BME280;37207;53.060;18.726;2023-04-07T00:05:48;100988.80;;;2.81;87.96
51147;BME280;37207;53.060;18.726;2023-04-07T00:08:14;100984.45;;;2.80;87.92
51147;BME280;37207;53.060;18.726;2023-04-07T00:10:40;100981.27;;;2.79;88.46
51147;BME280;37207;53.060;18.726;2023-04-07T00:13:06;100984.18;;;2.78;88.39
51147;BME280;37207;53.060;18.726;2023-04-07T00:15:32;100988.90;;;2.80;88.31
51147;BME280;37207;53.060;18.726;2023-04-07T00:17:58;100983.41;;;2.82;88.31
51147;BME280;37207;53.060;18.726;2023-04-07T00:20:23;100977.88;;;2.83;88.57
51147;BME280;37207;53.060;18.726;2023-04-07T00:22:49;100976.45;;;2.83;88.58
51147;BME280;37207;53.060;18.726;2023-04-07T00:25:15;100973.02;;;2.83;88.58
51147;BME280;37207;53.060;18.726;2023-04-07T00:27:41;100974.34;;;2.83;89.13
51147;BME280;37207;53.060;18.726;2023-04-07T00:30:07;100970.16;;;2.82;88.84
51147;BME280;37207;53.060;18.726;2023-04-07T00:32:33;100967.71;;;2.83;89.14
51147;BME280;37207;53.060;18.726;2023-04-07T00:34:59;100963.81;;;2.83;89.00
51147;BME280;37207;53.060;18.726;2023-04-07T00:37:25;100961.39;;;2.84;88.95
51147;BME280;37207;53.060;18.726;2023-04-07T00:39:51;100956.77;;;2.85;88.99
51147;BME280;37207;53.060;18.726;2023-04-07T00:42:18;100952.70;;;2.86;89.02
51147;BME280;37207;53.060;18.726;2023-04-07T00:44:44;100951.29;;;2.86;89.40
51147;BME280;37207;53.060;18.726;2023-04-07T00:47:11;100948.65;;;2.85;89.15
51147;BME280;37207;53.060;18.726;2023-04-07T00:49:37;100950.11;;;2.87;89.07
51147;BME280;37207;53.060;18.726;2023-04-07T00:52:04;100950.39;;;2.88;88.96
51147;BME280;37207;53.060;18.726;2023-04-07T00:54:31;100949.01;;;2.91;89.05
51147;BME280;37207;53.060;18.726;2023-04-07T00:56:57;100948.39;;;2.90;89.73
51147;BME280;37207;53.060;18.726;2023-04-07T00:59:23;100949.34;;;2.89;89.32
51147;BME280;37207;53.060;18.726;2023-04-07T01:02:00;100950.36;;;2.89;89.43
51147;BME280;37207;53.060;18.726;2023-04-07T01:07:47;100941.52;;;2.90;89.63
51147;BME280;37207;53.060;18.726;2023-04-07T01:10:21;100943.13;;;2.92;89.65
51147;BME280;37207;53.060;18.726;2023-04-07T01:13:21;100939.38;;;2.92;89.73
51147;BME280;37207;53.060;18.726;2023-04-07T01:15:51;100938.50;;;2.94;89.45
51147;BME280;37207;53.060;18.726;2023-04-07T01:18:23;100934.30;;;2.95;90.03
51147;BME280;37207;53.060;18.726;2023-04-07T01:20:55;100936.08;;;2.94;90.12
51147;BME280;37207;53.060;18.726;2023-04-07T01:23:51;100941.38;;;2.94;90.29
51147;BME280;37207;53.060;18.726;2023-04-07T01:26:31;100935.31;;;2.93;90.34
51147;BME280;37207;53.060;18.726;2023-04-07T01:31:54;100925.00;;;2.96;90.54
51147;BME280;37207;53.060;18.726;2023-04-07T01:34:24;100921.50;;;2.96;90.38
51147;BME280;37207;53.060;18.726;2023-04-07T01:36:51;100918.05;;;2.97;90.33
51147;BME280;37207;53.060;18.726;2023-04-07T01:39:19;100915.30;;;2.98;90.76
51147;BME280;37207;53.060;18.726;2023-04-07T01:41:46;100914.85;;;2.97;90.66
51147;BME280;37207;53.060;18.726;2023-04-07T01:44:13;100913.85;;;2.96;90.43
51147;BME280;37207;53.060;18.726;2023-04-07T01:46:40;100913.96;;;2.98;90.52
51147;BME280;37207;53.060;18.726;2023-04-07T01:49:06;100913.55;;;2.99;90.91
51147;BME280;37207;53.060;18.726;2023-04-07T01:51:33;100914.61;;;3.01;90.51
51147;BME280;37207;53.060;18.726;2023-04-07T01:54:00;100914.10;;;3.03;90.74
51147;BME280;37207;53.060;18.726;2023-04-07T01:56:27;100909.70;;;3.04;90.61
51147;BME280;37207;53.060;18.726;2023-04-07T01:58:54;100907.08;;;3.06;90.62
51147;BME280;37207;53.060;18.726;2023-04-07T02:01:22;100908.23;;;3.07;90.81
51147;BME280;37207;53.060;18.726;2023-04-07T02:03:58;100906.48;;;3.08;90.75
51147;BME280;37207;53.060;18.726;2023-04-07T02:06:32;100906.43;;;3.07;91.42
51147;BME280;37207;53.060;18.726;2023-04-07T02:09:04;100900.36;;;3.07;90.96
51147;BME280;37207;53.060;18.726;2023-04-07T02:11:33;100901.02;;;3.08;90.86
51147;BME280;37207;53.060;18.726;2023-04-07T02:14:03;100900.91;;;3.10;90.85
51147;BME280;37207;53.060;18.726;2023-04-07T02:16:35;100904.52;;;3.12;90.93
51147;BME280;37207;53.060;18.726;2023-04-07T02:19:02;100899.89;;;3.12;90.93
51147;BME280;37207;53.060;18.726;2023-04-07T02:21:29;100899.42;;;3.13;90.89
51147;BME280;37207;53.060;18.726;2023-04-07T02:23:55;100895.17;;;3.14;91.12
51147;BME280;37207;53.060;18.726;2023-04-07T02:26:21;100892.98;;;3.14;91.09
51147;BME280;37207;53.060;18.726;2023-04-07T02:28:48;100896.00;;;3.15;91.04
51147;BME280;37207;53.060;18.726;2023-04-07T02:31:16;100891.08;;;3.16;91.05
51147;BME280;37207;53.060;18.726;2023-04-07T02:33:42;100891.06;;;3.17;91.03
51147;BME280;37207;53.060;18.726;2023-04-07T02:36:08;100886.54;;;3.17;91.10
51147;BME280;37207;53.060;18.726;2023-04-07T02:38:33;100884.65;;;3.18;91.08
51147;BME280;37207;53.060;18.726;2023-04-07T02:40:59;100880.33;;;3.19;91.15
51147;BME280;37207;53.060;18.726;2023-04-07T02:43:28;100878.38;;;3.19;91.40
51147;BME280;37207;53.060;18.726;2023-04-07T02:45:53;100873.56;;;3.18;91.48
51147;BME280;37207;53.060;18.726;2023-04-07T02:48:20;100870.91;;;3.18;91.51
51147;BME280;37207;53.060;18.726;2023-04-07T02:50:45;100875.50;;;3.19;91.38
51147;BME280;37207;53.060;18.726;2023-04-07T02:53:11;100876.04;;;3.19;91.55
51147;BME280;37207;53.060;18.726;2023-04-07T02:55:37;100875.32;;;3.20;91.48
51147;BME280;37207;53.060;18.726;2023-04-07T02:58:03;100874.28;;;3.21;91.54
51147;BME280;37207;53.060;18.726;2023-04-07T03:00:34;100878.48;;;3.22;91.77
51147;BME280;37207;53.060;18.726;2023-04-07T03:03:09;100882.05;;;3.22;91.69
51147;BME280;37207;53.060;18.726;2023-04-07T03:05:37;100876.02;;;3.23;92.10
51147;BME280;37207;53.060;18.726;2023-04-07T03:08:03;100879.84;;;3.23;91.93
51147;BME280;37207;53.060;18.726;2023-04-07T03:10:29;100876.39;;;3.24;92.11
51147;BME280;37207;53.060;18.726;2023-04-07T03:12:56;100875.52;;;3.25;92.33
51147;BME280;37207;53.060;18.726;2023-04-07T03:15:22;100873.22;;;3.26;92.52
51147;BME280;37207;53.060;18.726;2023-04-07T03:17:49;100873.45;;;3.26;92.31
51147;BME280;37207;53.060;18.726;2023-04-07T03:20:15;100874.42;;;3.28;92.26
51147;BME280;37207;53.060;18.726;2023-04-07T03:22:42;100867.53;;;3.29;92.76
51147;BME280;37207;53.060;18.726;2023-04-07T03:25:14;100870.23;;;3.29;92.68
51147;BME280;37207;53.060;18.726;2023-04-07T03:27:40;100871.83;;;3.31;92.69
51147;BME280;37207;53.060;18.726;2023-04-07T03:30:07;100871.25;;;3.32;92.63
51147;BME280;37207;53.060;18.726;2023-04-07T03:32:34;100868.51;;;3.33;92.81
51147;BME280;37207;53.060;18.726;2023-04-07T03:35:00;100862.33;;;3.33;92.97
51147;BME280;37207;53.060;18.726;2023-04-07T03:37:26;100862.92;;;3.35;93.09
51147;BME280;37207;53.060;18.726;2023-04-07T03:39:52;100862.73;;;3.36;93.11
51147;BME280;37207;53.060;18.726;2023-04-07T03:42:25;100864.36;;;3.37;93.10
51147;BME280;37207;53.060;18.726;2023-04-07T03:44:56;100858.16;;;3.38;93.41
51147;BME280;37207;53.060;18.726;2023-04-07T03:47:22;100861.34;;;3.39;93.32
51147;BME280;37207;53.060;18.726;2023-04-07T03:49:52;100861.02;;;3.39;93.35
51147;BME280;37207;53.060;18.726;2023-04-07T03:52:20;100856.54;;;3.40;93.40
51147;BME280;37207;53.060;18.726;2023-04-07T03:54:47;100856.52;;;3.41;93.41
51147;BME280;37207;53.060;18.726;2023-04-07T03:57:13;100853.60;;;3.42;93.42
51147;BME280;37207;53.060;18.726;2023-04-07T03:59:42;100855.14;;;3.43;93.50
51147;BME280;37207;53.060;18.726;2023-04-07T04:02:07;100853.88;;;3.44;93.30
51147;BME280;37207;53.060;18.726;2023-04-07T04:04:34;100851.51;;;3.45;93.55
51147;BME280;37207;53.060;18.726;2023-04-07T04:07:00;100848.86;;;3.47;93.47
51147;BME280;37207;53.060;18.726;2023-04-07T04:09:35;100856.16;;;3.48;93.58
51147;BME280;37207;53.060;18.726;2023-04-07T04:12:01;100857.55;;;3.49;93.81
51147;BME280;37207;53.060;18.726;2023-04-07T04:14:28;100862.38;;;3.49;93.73
51147;BME280;37207;53.060;18.726;2023-04-07T04:16:57;100866.02;;;3.50;93.74
51147;BME280;37207;53.060;18.726;2023-04-07T04:19:26;100867.23;;;3.52;93.80
51147;BME280;37207;53.060;18.726;2023-04-07T04:21:53;100864.02;;;3.53;93.76
51147;BME280;37207;53.060;18.726;2023-04-07T04:24:20;100864.61;;;3.54;93.92
51147;BME280;37207;53.060;18.726;2023-04-07T04:26:47;100862.88;;;3.55;93.89
51147;BME280;37207;53.060;18.726;2023-04-07T04:29:13;100865.80;;;3.56;93.98
51147;BME280;37207;53.060;18.726;2023-04-07T04:31:40;100863.98;;;3.57;94.00
51147;BME280;37207;53.060;18.726;2023-04-07T04:34:06;100860.91;;;3.59;94.00
51147;BME280;37207;53.060;18.726;2023-04-07T04:36:32;100863.27;;;3.61;94.13
51147;BME280;37207;53.060;18.726;2023-04-07T04:39:02;100867.23;;;3.61;94.04
51147;BME280;37207;53.060;18.726;2023-04-07T04:41:28;100868.59;;;3.63;94.14
51147;BME280;37207;53.060;18.726;2023-04-07T04:43:54;100868.77;;;3.64;94.05
51147;BME280;37207;53.060;18.726;2023-04-07T04:46:22;100870.15;;;3.65;94.12
51147;BME280;37207;53.060;18.726;2023-04-07T04:48:48;100869.66;;;3.66;94.16
51147;BME280;37207;53.060;18.726;2023-04-07T04:51:16;100873.44;;;3.68;94.11
51147;BME280;37207;53.060;18.726;2023-04-07T04:53:44;100871.30;;;3.69;94.13
51147;BME280;37207;53.060;18.726;2023-04-07T04:56:10;100875.67;;;3.72;94.23
51147;BME280;37207;53.060;18.726;2023-04-07T04:58:40;100873.77;;;3.73;94.24
51147;BME280;37207;53.060;18.726;2023-04-07T05:01:11;100870.05;;;3.75;94.54
51147;BME280;37207;53.060;18.726;2023-04-07T05:03:41;100866.50;;;3.76;94.35
51147;BME280;37207;53.060;18.726;2023-04-07T05:06:13;100861.18;;;3.80;94.46
51147;BME280;37207;53.060;18.726;2023-04-07T05:08:40;100860.95;;;3.82;94.66
51147;BME280;37207;53.060;18.726;2023-04-07T05:11:06;100864.39;;;3.84;94.62
51147;BME280;37207;53.060;18.726;2023-04-07T05:13:32;100863.79;;;3.87;94.51
51147;BME280;37207;53.060;18.726;2023-04-07T05:16:00;100869.55;;;3.91;94.47
51147;BME280;37207;53.060;18.726;2023-04-07T05:18:26;100869.39;;;3.94;94.63
51147;BME280;37207;53.060;18.726;2023-04-07T05:20:52;100867.50;;;3.94;94.73
51147;BME280;37207;53.060;18.726;2023-04-07T05:23:19;100873.70;;;3.96;94.77
51147;BME280;37207;53.060;18.726;2023-04-07T05:25:47;100873.83;;;3.97;94.72
51147;BME280;37207;53.060;18.726;2023-04-07T05:28:12;100873.17;;;3.98;94.78
51147;BME280;37207;53.060;18.726;2023-04-07T05:30:38;100876.08;;;3.99;94.58
51147;BME280;37207;53.060;18.726;2023-04-07T05:33:04;100878.39;;;4.01;94.70
51147;BME280;37207;53.060;18.726;2023-04-07T05:35:56;100879.42;;;4.03;94.54
51147;BME280;37207;53.060;18.726;2023-04-07T05:38:22;100878.92;;;4.04;94.57
51147;BME280;37207;53.060;18.726;2023-04-07T05:40:48;100877.88;;;4.05;94.73
51147;BME280;37207;53.060;18.726;2023-04-07T05:43:22;100870.27;;;4.06;94.83
51147;BME280;37207;53.060;18.726;2023-04-07T05:45:48;100875.95;;;4.07;94.80
51147;BME280;37207;53.060;18.726;2023-04-07T05:48:14;100878.64;;;4.09;94.73
51147;BME280;37207;53.060;18.726;2023-04-07T05:50:43;100870.38;;;4.11;94.97
51147;BME280;37207;53.060;18.726;2023-04-07T05:53:12;100874.95;;;4.12;94.99
51147;BME280;37207;53.060;18.726;2023-04-07T05:55:41;100873.14;;;4.13;94.91
51147;BME280;37207;53.060;18.726;2023-04-07T05:58:07;100871.52;;;4.15;95.03
51147;BME280;37207;53.060;18.726;2023-04-07T06:00:34;100871.86;;;4.16;95.04
51147;BME280;37207;53.060;18.726;2023-04-07T06:03:07;100876.57;;;4.18;94.90
51147;BME280;37207;53.060;18.726;2023-04-07T06:05:41;100876.81;;;4.20;95.09
51147;BME280;37207;53.060;18.726;2023-04-07T06:08:09;100874.74;;;4.22;95.18
51147;BME280;37207;53.060;18.726;2023-04-07T06:10:35;100875.95;;;4.24;95.28
51147;BME280;37207;53.060;18.726;2023-04-07T06:13:01;100879.56;;;4.26;95.36
51147;BME280;37207;53.060;18.726;2023-04-07T06:15:27;100872.16;;;4.28;95.25
51147;BME280;37207;53.060;18.726;2023-04-07T06:17:53;100873.05;;;4.30;95.28
51147;BME280;37207;53.060;18.726;2023-04-07T06:20:19;100876.63;;;4.33;95.31
51147;BME280;37207;53.060;18.726;2023-04-07T06:22:47;100884.16;;;4.36;95.33
51147;BME280;37207;53.060;18.726;2023-04-07T06:25:13;100881.90;;;4.39;95.26
51147;BME280;37207;53.060;18.726;2023-04-07T06:27:39;100885.63;;;4.42;95.48
51147;BME280;37207;53.060;18.726;2023-04-07T06:30:05;100887.13;;;4.47;95.46
51147;BME280;37207;53.060;18.726;2023-04-07T06:32:31;100891.90;;;4.51;95.24
51147;BME280;37207;53.060;18.726;2023-04-07T06:34:58;100892.84;;;4.55;95.40
51147;BME280;37207;53.060;18.726;2023-04-07T06:37:24;100889.75;;;4.56;95.49
51147;BME280;37207;53.060;18.726;2023-04-07T06:39:50;100891.00;;;4.56;95.61
51147;BME280;37207;53.060;18.726;2023-04-07T06:42:16;100890.18;;;4.57;95.53
51147;BME280;37207;53.060;18.726;2023-04-07T06:44:49;100892.46;;;4.57;95.40
51147;BME280;37207;53.060;18.726;2023-04-07T06:47:15;100892.44;;;4.58;95.58
51147;BME280;37207;53.060;18.726;2023-04-07T06:49:41;100893.60;;;4.58;95.66
51147;BME280;37207;53.060;18.726;2023-04-07T06:52:07;100889.78;;;4.58;95.66
51147;BME280;37207;53.060;18.726;2023-04-07T06:54:33;100889.95;;;4.58;95.66
51147;BME280;37207;53.060;18.726;2023-04-07T06:56:59;100889.38;;;4.58;95.63
51147;BME280;37207;53.060;18.726;2023-04-07T06:59:26;100882.70;;;4.59;95.70
51147;BME280;37207;53.060;18.726;2023-04-07T07:01:52;100881.88;;;4.61;95.84
51147;BME280;37207;53.060;18.726;2023-04-07T07:04:17;100878.92;;;4.63;96.04
51147;BME280;37207;53.060;18.726;2023-04-07T07:06:43;100877.23;;;4.67;95.89
51147;BME280;37207;53.060;18.726;2023-04-07T07:09:09;100880.02;;;4.73;95.97
51147;BME280;37207;53.060;18.726;2023-04-07T07:11:35;100878.30;;;4.78;95.92
51147;BME280;37207;53.060;18.726;2023-04-07T07:14:01;100877.79;;;4.82;95.93
51147;BME280;37207;53.060;18.726;2023-04-07T07:16:27;100871.91;;;4.84;95.85
51147;BME280;37207;53.060;18.726;2023-04-07T07:18:53;100870.02;;;4.87;95.74
51147;BME280;37207;53.060;18.726;2023-04-07T07:21:19;100863.75;;;4.90;95.76
51147;BME280;37207;53.060;18.726;2023-04-07T07:23:45;100864.48;;;4.95;95.74
51147;BME280;37207;53.060;18.726;2023-04-07T07:26:11;100873.00;;;5.00;95.74
51147;BME280;37207;53.060;18.726;2023-04-07T07:28:37;100874.61;;;5.05;95.51
51147;BME280;37207;53.060;18.726;2023-04-07T07:31:12;100867.01;;;5.08;95.63
51147;BME280;37207;53.060;18.726;2023-04-07T07:33:40;100875.05;;;5.11;95.68
51147;BME280;37207;53.060;18.726;2023-04-07T07:36:09;100882.08;;;5.14;95.55
51147;BME280;37207;53.060;18.726;2023-04-07T07:38:34;100885.38;;;5.18;95.56
51147;BME280;37207;53.060;18.726;2023-04-07T07:41:01;100887.06;;;5.26;95.64
51147;BME280;37207;53.060;18.726;2023-04-07T07:43:27;100886.11;;;5.41;95.69
51147;BME280;37207;53.060;18.726;2023-04-07T07:45:54;100888.25;;;5.59;95.84
51147;BME280;37207;53.060;18.726;2023-04-07T07:48:19;100889.36;;;5.76;95.75
51147;BME280;37207;53.060;18.726;2023-04-07T07:50:45;100888.41;;;5.88;95.58
51147;BME280;37207;53.060;18.726;2023-04-07T07:53:12;100884.71;;;5.95;95.29
51147;BME280;37207;53.060;18.726;2023-04-07T07:55:38;100887.90;;;6.01;95.26
51147;BME280;37207;53.060;18.726;2023-04-07T07:58:04;100888.81;;;6.07;95.19
51147;BME280;37207;53.060;18.726;2023-04-07T08:00:30;100888.38;;;6.15;95.08
51147;BME280;37207;53.060;18.726;2023-04-07T08:02:56;100888.28;;;6.22;94.97
51147;BME280;37207;53.060;18.726;2023-04-07T08:05:22;100894.77;;;6.29;95.06
51147;BME280;37207;53.060;18.726;2023-04-07T08:07:48;100894.13;;;6.44;95.24
51147;BME280;37207;53.060;18.726;2023-04-07T08:10:13;100893.80;;;6.58;94.96
51147;BME280;37207;53.060;18.726;2023-04-07T08:12:40;100895.77;;;6.69;94.73
51147;BME280;37207;53.060;18.726;2023-04-07T08:15:06;100897.95;;;6.71;94.38
51147;BME280;37207;53.060;18.726;2023-04-07T08:17:37;100898.46;;;6.74;94.25
51147;BME280;37207;53.060;18.726;2023-04-07T08:20:04;100899.15;;;6.78;94.10
51147;BME280;37207;53.060;18.726;2023-04-07T08:22:30;100896.91;;;6.82;94.10
51147;BME280;37207;53.060;18.726;2023-04-07T08:24:56;100893.41;;;6.85;94.06
51147;BME280;37207;53.060;18.726;2023-04-07T08:27:21;100894.23;;;6.88;93.75
51147;BME280;37207;53.060;18.726;2023-04-07T08:29:57;100897.59;;;6.90;93.50
51147;BME280;37207;53.060;18.726;2023-04-07T08:32:24;100893.70;;;6.92;93.52
51147;BME280;37207;53.060;18.726;2023-04-07T08:34:50;100893.08;;;6.91;93.31
51147;BME280;37207;53.060;18.726;2023-04-07T08:37:15;100896.34;;;6.92;93.14
51147;BME280;37207;53.060;18.726;2023-04-07T08:39:41;100898.60;;;6.96;93.43
51147;BME280;37207;53.060;18.726;2023-04-07T08:42:07;100895.85;;;7.02;93.44
51147;BME280;37207;53.060;18.726;2023-04-07T08:44:35;100894.59;;;7.08;93.45
51147;BME280;37207;53.060;18.726;2023-04-07T08:47:04;100891.45;;;7.16;93.30
51147;BME280;37207;53.060;18.726;2023-04-07T08:49:35;100885.31;;;7.22;93.41
51147;BME280;37207;53.060;18.726;2023-04-07T08:52:05;100883.00;;;7.27;93.05
51147;BME280;37207;53.060;18.726;2023-04-07T08:54:34;100881.71;;;7.31;92.94
51147;BME280;37207;53.060;18.726;2023-04-07T08:57:02;100878.36;;;7.34;92.95
51147;BME280;37207;53.060;18.726;2023-04-07T08:59:28;100879.27;;;7.33;92.58
51147;BME280;37207;53.060;18.726;2023-04-07T09:01:55;100878.32;;;7.31;92.55
51147;BME280;37207;53.060;18.726;2023-04-07T09:04:22;100880.60;;;7.29;92.43
51147;BME280;37207;53.060;18.726;2023-04-07T09:06:49;100877.98;;;7.30;92.60
51147;BME280;37207;53.060;18.726;2023-04-07T09:09:15;100879.73;;;7.33;92.65
51147;BME280;37207;53.060;18.726;2023-04-07T09:11:41;100876.60;;;7.39;92.60
51147;BME280;37207;53.060;18.726;2023-04-07T09:14:07;100875.73;;;7.41;92.74
51147;BME280;37207;53.060;18.726;2023-04-07T09:16:33;100869.90;;;7.48;92.81
51147;BME280;37207;53.060;18.726;2023-04-07T09:18:58;100868.15;;;7.60;93.04
51147;BME280;37207;53.060;18.726;2023-04-07T09:21:25;100867.45;;;7.73;92.72
51147;BME280;37207;53.060;18.726;2023-04-07T09:23:52;100872.71;;;7.85;92.79
51147;BME280;37207;53.060;18.726;2023-04-07T09:26:24;100869.64;;;7.98;92.76
51147;BME280;37207;53.060;18.726;2023-04-07T09:31:21;100873.13;;;8.15;92.47
51147;BME280;37207;53.060;18.726;2023-04-07T09:33:51;100867.42;;;8.18;92.24
51147;BME280;37207;53.060;18.726;2023-04-07T09:36:17;100862.19;;;8.24;92.03
51147;BME280;37207;53.060;18.726;2023-04-07T09:38:44;100863.00;;;8.34;92.06
51147;BME280;37207;53.060;18.726;2023-04-07T09:41:15;100862.26;;;8.44;91.92
51147;BME280;37207;53.060;18.726;2023-04-07T09:43:43;100864.85;;;8.47;91.54
51147;BME280;37207;53.060;18.726;2023-04-07T09:46:14;100873.88;;;8.44;91.10
51147;BME280;37207;53.060;18.726;2023-04-07T09:48:41;100871.34;;;8.41;91.19
51147;BME280;37207;53.060;18.726;2023-04-07T09:51:15;100865.60;;;8.37;90.80
51147;BME280;37207;53.060;18.726;2023-04-07T09:53:47;100859.33;;;8.39;91.05
51147;BME280;37207;53.060;18.726;2023-04-07T09:56:18;100860.94;;;8.45;91.24
51147;BME280;37207;53.060;18.726;2023-04-07T09:58:45;100863.10;;;8.48;91.14
51147;BME280;37207;53.060;18.726;2023-04-07T10:01:13;100859.34;;;8.47;91.11
51147;BME280;37207;53.060;18.726;2023-04-07T10:03:39;100859.30;;;8.48;90.94
51147;BME280;37207;53.060;18.726;2023-04-07T10:06:05;100860.57;;;8.51;90.85
51147;BME280;37207;53.060;18.726;2023-04-07T10:08:34;100863.98;;;8.51;90.82
51147;BME280;37207;53.060;18.726;2023-04-07T10:11:01;100860.83;;;8.53;90.82
51147;BME280;37207;53.060;18.726;2023-04-07T10:13:29;100858.07;;;8.57;90.96
51147;BME280;37207;53.060;18.726;2023-04-07T10:15:57;100858.04;;;8.64;90.92
51147;BME280;37207;53.060;18.726;2023-04-07T10:18:28;100861.44;;;8.69;90.69
51147;BME280;37207;53.060;18.726;2023-04-07T10:20:55;100855.64;;;8.70;90.28
51147;BME280;37207;53.060;18.726;2023-04-07T10:23:33;100857.98;;;8.76;90.52
51147;BME280;37207;53.060;18.726;2023-04-07T10:26:05;100858.05;;;8.78;90.32
51147;BME280;37207;53.060;18.726;2023-04-07T10:28:33;100857.99;;;8.73;89.87
51147;BME280;37207;53.060;18.726;2023-04-07T10:31:02;100853.88;;;8.78;89.83
51147;BME280;37207;53.060;18.726;2023-04-07T10:36:14;100844.75;;;8.89;89.64
51147;BME280;37207;53.060;18.726;2023-04-07T10:38:40;100840.17;;;8.92;89.44
51147;BME280;37207;53.060;18.726;2023-04-07T10:41:39;100834.17;;;8.94;89.40
51147;BME280;37207;53.060;18.726;2023-04-07T10:44:09;100829.92;;;8.93;89.37
51147;BME280;37207;53.060;18.726;2023-04-07T10:49:21;100826.68;;;8.91;89.49
51147;BME280;37207;53.060;18.726;2023-04-07T10:54:38;100814.23;;;9.39;89.58
51147;BME280;37207;53.060;18.726;2023-04-07T10:57:06;100810.76;;;9.71;89.67
51147;BME280;37207;53.060;18.726;2023-04-07T10:59:35;100813.33;;;9.89;88.97
51147;BME280;37207;53.060;18.726;2023-04-07T11:04:37;100807.33;;;10.05;88.15
51147;BME280;37207;53.060;18.726;2023-04-07T11:07:04;100804.51;;;10.05;87.64
51147;BME280;37207;53.060;18.726;2023-04-07T11:09:30;100809.63;;;9.98;86.72
51147;BME280;37207;53.060;18.726;2023-04-07T11:11:56;100816.03;;;9.91;86.99
51147;BME280;37207;53.060;18.726;2023-04-07T11:14:26;100812.55;;;9.90;87.27
51147;BME280;37207;53.060;18.726;2023-04-07T11:16:53;100817.91;;;9.93;87.09
51147;BME280;37207;53.060;18.726;2023-04-07T11:19:19;100809.93;;;9.98;86.95
51147;BME280;37207;53.060;18.726;2023-04-07T11:21:44;100812.23;;;10.06;86.79
51147;BME280;37207;53.060;18.726;2023-04-07T11:24:33;100821.77;;;10.16;86.42
51147;BME280;37207;53.060;18.726;2023-04-07T11:26:59;100842.73;;;10.14;85.90
51147;BME280;37207;53.060;18.726;2023-04-07T11:29:30;100852.19;;;10.04;86.09
51147;BME280;37207;53.060;18.726;2023-04-07T11:31:58;100855.23;;;10.07;86.38
51147;BME280;37207;53.060;18.726;2023-04-07T11:34:31;100855.56;;;10.11;86.13
51147;BME280;37207;53.060;18.726;2023-04-07T11:37:17;100856.00;;;10.02;85.50
51147;BME280;37207;53.060;18.726;2023-04-07T11:39:43;100858.06;;;9.85;85.27
51147;BME280;37207;53.060;18.726;2023-04-07T11:42:12;100858.02;;;9.71;85.15
51147;BME280;37207;53.060;18.726;2023-04-07T11:44:44;100859.20;;;9.62;85.59
51147;BME280;37207;53.060;18.726;2023-04-07T11:47:10;100856.54;;;9.57;85.84
51147;BME280;37207;53.060;18.726;2023-04-07T11:49:44;100859.58;;;9.56;86.15
51147;BME280;37207;53.060;18.726;2023-04-07T11:52:10;100857.92;;;9.59;86.43
51147;BME280;37207;53.060;18.726;2023-04-07T11:54:44;100853.72;;;9.62;86.68
51147;BME280;37207;53.060;18.726;2023-04-07T11:57:25;100852.23;;;9.63;86.52
51147;BME280;37207;53.060;18.726;2023-04-07T12:00:09;100845.45;;;9.67;86.56
51147;BME280;37207;53.060;18.726;2023-04-07T12:02:35;100845.08;;;9.79;86.64
51147;BME280;37207;53.060;18.726;2023-04-07T12:05:02;100840.56;;;9.94;86.54
51147;BME280;37207;53.060;18.726;2023-04-07T12:07:28;100842.13;;;10.02;86.19
51147;BME280;37207;53.060;18.726;2023-04-07T12:09:54;100836.60;;;10.06;86.09
51147;BME280;37207;53.060;18.726;2023-04-07T12:12:27;100844.21;;;10.08;85.95
51147;BME280;37207;53.060;18.726;2023-04-07T12:14:54;100840.95;;;10.07;85.71
51147;BME280;37207;53.060;18.726;2023-04-07T12:17:25;100839.85;;;10.06;85.54
51147;BME280;37207;53.060;18.726;2023-04-07T12:19:52;100841.93;;;10.09;85.64
51147;BME280;37207;53.060;18.726;2023-04-07T12:22:18;100839.48;;;10.18;85.63
51147;BME280;37207;53.060;18.726;2023-04-07T12:24:44;100838.95;;;10.25;85.48
51147;BME280;37207;53.060;18.726;2023-04-07T12:27:10;100843.96;;;10.33;85.10
51147;BME280;37207;53.060;18.726;2023-04-07T12:29:37;100842.19;;;10.39;85.02
51147;BME280;37207;53.060;18.726;2023-04-07T12:32:03;100841.75;;;10.40;84.69
51147;BME280;37207;53.060;18.726;2023-04-07T12:34:29;100837.67;;;10.38;84.55
51147;BME280;37207;53.060;18.726;2023-04-07T12:36:55;100841.19;;;10.41;84.61
51147;BME280;37207;53.060;18.726;2023-04-07T12:39:21;100843.67;;;10.64;84.72
51147;BME280;37207;53.060;18.726;2023-04-07T12:41:47;100841.59;;;10.90;84.09
51147;BME280;37207;53.060;18.726;2023-04-07T12:44:15;100841.17;;;10.89;83.65
51147;BME280;37207;53.060;18.726;2023-04-07T12:46:41;100840.47;;;10.88;83.21
51147;BME280;37207;53.060;18.726;2023-04-07T12:49:07;100840.39;;;10.90;83.11
51147;BME280;37207;53.060;18.726;2023-04-07T12:51:33;100839.70;;;10.99;83.22
51147;BME280;37207;53.060;18.726;2023-04-07T12:54:00;100843.30;;;11.09;83.07
51147;BME280;37207;53.060;18.726;2023-04-07T12:56:26;100840.50;;;11.15;82.97
51147;BME280;37207;53.060;18.726;2023-04-07T12:58:55;100844.77;;;11.11;82.69
51147;BME280;37207;53.060;18.726;2023-04-07T13:01:21;100853.86;;;10.98;82.60
51147;BME280;37207;53.060;18.726;2023-04-07T13:03:46;100867.95;;;10.81;82.48
51147;BME280;37207;53.060;18.726;2023-04-07T13:06:12;100876.87;;;10.63;82.40
51147;BME280;37207;53.060;18.726;2023-04-07T13:08:39;100877.16;;;10.43;82.29
51147;BME280;37207;53.060;18.726;2023-04-07T13:11:06;100874.73;;;10.28;82.72